Time;durP1;ratioP1;P1;durP2;ratioP2;P2;SDS_P1;SDS_P2;PMS_P1;PMS_P2;Temp;Humidity;BMP_temperature;BMP_pressure;BME280_temperature;BME280_humidity;BME280_pressure;Samples;Min_cycle;Max_cycle;Signal;HPM_P1;HPM_P2
2022/10/12 00:00:20;;;;;;;29.10;18.60;;;;;;;14.37;100.00;95040.88;5070005;28;20204;-63
2022/10/12 00:02:46;;;;;;;31.52;19.48;;;;;;;14.24;100.00;95041.16;5070868;28;20650;-60
2022/10/12 00:05:11;;;;;;;27.35;18.75;;;;;;;14.31;100.00;95041.44;5070687;28;20196;-61
2022/10/12 00:07:37;;;;;;;26.48;18.08;;;;;;;14.36;100.00;95046.94;5052995;28;20199;-61
2022/10/12 00:10:03;;;;;;;23.77;18.15;;;;;;;14.27;100.00;95043.44;5070942;28;20295;-63
2022/10/12 00:12:28;;;;;;;26.20;17.88;;;;;;;14.13;100.00;95043.91;5070941;28;20189;-62
2022/10/12 00:14:54;;;;;;;25.23;17.17;;;;;;;13.99;100.00;95036.72;5069823;28;20204;-59
2022/10/12 00:17:19;;;;;;;24.65;18.30;;;;;;;14.01;100.00;95031.47;5071649;28;20188;-62
2022/10/12 00:19:45;;;;;;;21.80;15.80;;;;;;;13.96;100.00;95036.16;5071130;28;20220;-60
2022/10/12 00:22:13;;;;;;;21.27;15.43;;;;;;;14.07;100.00;95030.88;5069694;28;20193;-64
2022/10/12 00:24:38;;;;;;;21.90;15.18;;;;;;;14.04;100.00;95038.81;5070060;28;20307;-63
2022/10/12 00:27:04;;;;;;;30.83;16.45;;;;;;;14.15;100.00;95041.22;5069647;28;20272;-61
2022/10/12 00:29:29;;;;;;;21.27;15.45;;;;;;;14.19;100.00;95037.44;5071934;28;20299;-61
2022/10/12 00:31:55;;;;;;;21.88;16.02;;;;;;;14.17;100.00;95037.56;5070496;28;20244;-63
2022/10/12 00:34:20;;;;;;;23.17;15.20;;;;;;;14.21;100.00;95035.53;5068936;28;20216;-62
2022/10/12 00:36:46;;;;;;;23.60;16.08;;;;;;;14.08;100.00;95029.94;5070725;28;20188;-63
2022/10/12 00:39:11;;;;;;;22.50;15.95;;;;;;;14.13;100.00;95030.31;5068952;28;20717;-63
2022/10/12 00:41:41;;;;;;;23.52;16.67;;;;;;;14.03;100.00;95032.13;5067602;28;20193;-63
2022/10/12 00:44:39;;;;;;;25.20;16.10;;;;;;;14.00;100.00;95033.19;5070408;28;20227;-63
2022/10/12 00:47:25;;;;;;;22.33;15.88;;;;;;;14.07;100.00;95029.16;5070391;28;20185;-62
2022/10/12 00:50:19;;;;;;;22.75;15.20;;;;;;;14.19;100.00;95035.69;5070807;28;20722;-63
2022/10/12 00:53:09;;;;;;;24.10;16.77;;;;;;;14.15;100.00;95031.81;5070767;28;20197;-62
2022/10/12 00:55:43;;;;;;;21.17;14.77;;;;;;;14.08;100.00;95022.25;5071216;28;20285;-61
2022/10/12 00:58:09;;;;;;;21.88;15.70;;;;;;;13.94;100.00;95010.75;5071440;28;20185;-63
2022/10/12 01:00:37;;;;;;;23.88;16.52;;;;;;;14.06;100.00;95021.59;5073651;28;20615;-62
2022/10/12 01:03:05;;;;;;;24.58;16.63;;;;;;;13.98;100.00;95019.75;5073668;28;20196;-61
2022/10/12 01:05:31;;;;;;;23.15;16.17;;;;;;;13.99;100.00;95018.81;5073737;28;20205;-59
2022/10/12 01:07:59;;;;;;;22.55;15.85;;;;;;;14.05;100.00;95025.13;5074625;28;20196;-60
2022/10/12 01:10:25;;;;;;;25.05;15.77;;;;;;;13.99;100.00;95018.00;5071913;28;20304;-59
2022/10/12 01:12:51;;;;;;;22.63;15.32;;;;;;;14.01;100.00;95011.81;5072383;28;20300;-62
2022/10/12 01:15:17;;;;;;;23.05;15.18;;;;;;;14.11;100.00;95022.81;5073664;28;20220;-62
2022/10/12 01:18:13;;;;;;;22.15;15.15;;;;;;;14.05;100.00;95027.66;5072683;28;20192;-64
2022/10/12 01:20:45;;;;;;;20.87;14.77;;;;;;;14.05;100.00;95025.13;5073975;28;20615;-62
2022/10/12 01:23:27;;;;;;;20.13;14.25;;;;;;;14.01;100.00;95021.22;5072416;28;20197;-64
2022/10/12 01:25:55;;;;;;;23.17;13.63;;;;;;;13.92;100.00;95022.06;5073031;28;20189;-62
2022/10/12 01:28:29;;;;;;;19.00;13.70;;;;;;;14.09;100.00;95032.38;5073131;28;20177;-63
2022/10/12 01:31:03;;;;;;;18.45;13.80;;;;;;;13.97;100.00;95030.13;5071490;28;20212;-63
2022/10/12 01:33:34;;;;;;;21.23;13.30;;;;;;;14.02;100.00;95025.38;5073045;28;20192;-62
2022/10/12 01:36:08;;;;;;;19.70;13.80;;;;;;;14.10;100.00;95028.03;5073125;28;20196;-62
2022/10/12 01:39:13;;;;;;;18.73;13.70;;;;;;;14.34;100.00;95032.69;5072896;28;20254;-63
2022/10/12 01:41:45;;;;;;;20.83;13.65;;;;;;;14.07;100.00;95015.56;5073812;28;20188;-62
2022/10/12 01:44:18;;;;;;;19.77;13.35;;;;;;;13.99;100.00;95018.81;5071828;28;20212;-62
2022/10/12 01:46:45;;;;;;;20.55;12.82;;;;;;;14.02;100.00;95022.81;5074333;28;20577;-62
2022/10/12 01:49:20;;;;;;;17.02;12.60;;;;;;;14.11;100.00;95027.91;5072805;28;20217;-62
2022/10/12 01:52:15;;;;;;;18.58;13.85;;;;;;;14.10;100.00;95023.72;5071437;28;20220;-62
2022/10/12 01:54:48;;;;;;;21.30;13.13;;;;;;;14.03;100.00;95024.44;5072698;28;20217;-62
2022/10/12 01:58:02;;;;;;;22.58;12.90;;;;;;;14.05;100.00;95022.56;5073517;28;20263;-62
2022/10/12 02:00:32;;;;;;;15.65;12.32;;;;;;;14.06;100.00;95030.06;5042491;28;20259;-63
2022/10/12 02:03:42;;;;;;;16.58;12.25;;;;;;;14.15;100.00;95039.47;5072787;28;20200;-62
2022/10/12 02:06:22;;;;;;;16.50;13.00;;;;;;;14.20;100.00;95041.59;5031175;28;20210;-59
2022/10/12 02:08:53;;;;;;;17.05;12.35;;;;;;;14.15;100.00;95036.09;5073344;28;20594;-59
2022/10/12 02:11:20;;;;;;;18.35;12.38;;;;;;;14.01;100.00;95026.34;5073242;28;20215;-59
2022/10/12 02:14:09;;;;;;;15.65;11.85;;;;;;;14.09;100.00;95039.22;5073589;28;20705;-59
2022/10/12 02:16:46;;;;;;;20.40;12.23;;;;;;;14.20;100.00;95044.16;5032905;28;20212;-59
2022/10/12 02:19:17;;;;;;;21.75;12.55;;;;;;;14.09;100.00;95040.03;5072602;28;20366;-61
2022/10/12 02:21:46;;;;;;;15.95;12.88;;;;;;;14.06;100.00;95034.38;5072663;28;20199;-61
2022/10/12 02:24:13;;;;;;;19.00;12.43;;;;;;;14.06;100.00;95042.03;5072525;28;20265;-63
2022/10/12 02:26:42;;;;;;;14.32;11.43;;;;;;;14.12;100.00;95044.84;5072619;28;20193;-63
2022/10/12 02:29:13;;;;;;;17.88;12.00;;;;;;;14.04;100.00;95046.50;5072356;28;20294;-63
2022/10/12 02:31:50;;;;;;;16.30;11.37;;;;;;;14.27;100.00;95068.22;5071889;28;20209;-61
2022/10/12 02:34:27;;;;;;;17.05;12.55;;;;;;;14.14;100.00;95050.63;5072289;28;20299;-62
2022/10/12 02:37:03;;;;;;;16.85;11.70;;;;;;;14.14;100.00;95047.25;5072718;28;20245;-62
2022/10/12 02:39:35;;;;;;;15.95;11.95;;;;;;;14.28;100.00;95060.41;5073170;28;20705;-62
2022/10/12 02:42:07;;;;;;;15.10;11.48;;;;;;;14.36;100.00;95064.84;5072009;28;20807;-62
2022/10/12 02:44:37;;;;;;;16.55;11.25;;;;;;;14.31;100.00;95059.34;5087796;22;20709;-62
2022/10/12 02:47:07;;;;;;;15.45;11.45;;;;;;;14.20;100.00;95052.63;5092053;28;20196;-63
2022/10/12 02:49:34;;;;;;;16.83;13.18;;;;;;;14.21;100.00;95045.75;5073629;28;20220;-62
2022/10/12 02:52:02;;;;;;;19.15;12.27;;;;;;;14.09;100.00;95039.22;5091697;28;20212;-62
2022/10/12 02:54:28;;;;;;;16.63;11.73;;;;;;;14.24;100.00;95048.06;5093035;28;20302;-61
2022/10/12 02:56:54;;;;;;;15.02;11.85;;;;;;;14.10;100.00;95033.16;5073714;28;20322;-62
2022/10/12 02:59:19;;;;;;;17.00;12.40;;;;;;;14.04;100.00;95033.72;5091951;28;20704;-63
2022/10/12 03:01:45;;;;;;;15.27;11.73;;;;;;;14.09;100.00;95034.94;5093939;28;20266;-62
2022/10/12 03:04:11;;;;;;;20.45;13.20;;;;;;;14.11;100.00;95034.78;5074669;28;20685;-62
2022/10/12 03:06:36;;;;;;;14.82;11.82;;;;;;;14.12;100.00;95044.84;5091552;28;20187;-63
2022/10/12 03:09:04;;;;;;;18.08;12.23;;;;;;;14.10;100.00;95039.06;5092227;28;20208;-62
2022/10/12 03:11:30;;;;;;;21.42;13.55;;;;;;;14.04;100.00;95041.38;5091916;28;20296;-62
2022/10/12 03:13:56;;;;;;;18.55;12.15;;;;;;;14.00;100.00;95045.16;5091966;28;20215;-61
2022/10/12 03:16:23;;;;;;;18.40;13.30;;;;;;;14.05;100.00;95040.44;5092593;28;20187;-62
2022/10/12 03:18:49;;;;;;;17.15;12.30;;;;;;;14.10;100.00;95046.75;5091497;28;20220;-65
2022/10/12 03:21:15;;;;;;;17.92;12.38;;;;;;;14.10;100.00;95040.81;5092039;28;20222;-63
2022/10/12 03:23:40;;;;;;;21.90;13.35;;;;;;;14.25;100.00;95050.47;5074106;28;20196;-63
2022/10/12 03:26:06;;;;;;;23.83;12.82;;;;;;;14.32;100.00;95049.91;5091945;28;20184;-63
2022/10/12 03:28:33;;;;;;;17.90;12.30;;;;;;;14.22;100.00;95037.16;5073867;28;20654;-62
2022/10/12 03:30:59;;;;;;;16.75;12.65;;;;;;;14.17;100.00;95041.88;5091759;28;20265;-61
2022/10/12 03:33:25;;;;;;;17.02;13.10;;;;;;;14.32;100.00;95051.50;5091260;28;20181;-62
2022/10/12 03:35:51;;;;;;;16.30;13.15;;;;;;;14.37;100.00;95052.84;5091401;28;20183;-60
2022/10/12 03:38:17;;;;;;;18.52;14.02;;;;;;;14.23;100.00;95043.88;5072801;28;20573;-59
2022/10/12 03:40:44;;;;;;;20.98;13.82;;;;;;;14.20;100.00;95036.50;5091204;28;20787;-63
2022/10/12 03:43:11;;;;;;;16.92;13.00;;;;;;;14.26;100.00;95046.16;5091830;28;20544;-62
2022/10/12 03:45:37;;;;;;;17.98;12.27;;;;;;;14.23;100.00;95039.56;5072968;28;20686;-63
2022/10/12 03:48:11;;;;;;;21.15;13.85;;;;;;;14.32;100.00;95055.03;5088014;28;20192;-61
2022/10/12 03:50:51;;;;;;;17.75;13.45;;;;;;;14.58;100.00;95069.56;5069607;28;20227;-62
2022/10/12 03:53:18;;;;;;;21.33;13.65;;;;;;;14.34;100.00;95043.72;5089623;28;20203;-62
2022/10/12 03:55:44;;;;;;;20.80;14.55;;;;;;;14.30;100.00;95039.84;5089769;28;20208;-61
2022/10/12 03:58:10;;;;;;;18.48;13.13;;;;;;;14.50;100.00;95061.00;5088307;28;20199;-60
2022/10/12 04:00:35;;;;;;;19.50;12.73;;;;;;;14.35;100.00;95045.31;5072880;28;20219;-61
2022/10/12 04:03:01;;;;;;;19.33;13.50;;;;;;;14.46;100.00;95042.56;5090444;28;20180;-63
2022/10/12 04:05:27;;;;;;;23.67;13.90;;;;;;;14.49;100.00;95064.47;5071660;28;20220;-61
2022/10/12 04:07:53;;;;;;;20.00;13.30;;;;;;;14.31;100.00;95054.22;5089254;28;20253;-60
2022/10/12 04:10:18;;;;;;;20.58;14.45;;;;;;;14.16;100.00;95035.94;5089513;28;20215;-63
2022/10/12 04:12:45;;;;;;;21.88;13.48;;;;;;;14.13;100.00;95041.38;5089697;28;20192;-61
2022/10/12 04:15:11;;;;;;;16.50;13.13;;;;;;;14.11;100.00;95047.56;5089405;28;20219;-61
2022/10/12 04:17:37;;;;;;;20.35;12.50;;;;;;;14.10;100.00;95051.03;5089177;28;20697;-60
2022/10/12 04:20:05;;;;;;;16.90;12.87;;;;;;;14.05;100.00;95043.81;5089171;28;20393;-62
2022/10/12 04:22:30;;;;;;;20.98;13.38;;;;;;;14.06;100.00;95045.41;5071354;28;20584;-63
2022/10/12 04:24:55;;;;;;;18.33;13.23;;;;;;;14.07;100.00;95051.34;5089639;28;20592;-63
2022/10/12 04:27:21;;;;;;;22.40;13.68;;;;;;;14.03;100.00;95044.91;5089421;28;20204;-62
2022/10/12 04:29:46;;;;;;;19.10;12.98;;;;;;;14.04;100.00;95052.41;5070691;28;20215;-60
2022/10/12 04:32:12;;;;;;;19.70;11.70;;;;;;;14.39;100.00;95053.50;5089272;28;20572;-59
2022/10/12 04:34:37;;;;;;;29.35;20.55;;;;;;;14.87;100.00;95059.94;5074094;28;20277;-59
2022/10/12 04:37:02;;;;;;;26.52;14.50;;;;;;;14.66;100.00;95061.97;5092598;28;20565;-61
2022/10/12 04:39:28;;;;;;;15.50;12.43;;;;;;;14.49;100.00;95067.03;5099792;22;20220;-59
2022/10/12 04:41:54;;;;;;;19.13;12.68;;;;;;;14.36;100.00;95067.41;5092732;28;20195;-61
2022/10/12 04:44:20;;;;;;;17.55;12.38;;;;;;;14.30;100.00;95068.75;5080412;28;20221;-60
2022/10/12 04:46:45;;;;;;;16.95;12.48;;;;;;;14.27;100.00;95078.44;5072400;28;20193;-62
2022/10/12 04:49:11;;;;;;;17.15;12.77;;;;;;;14.22;100.00;95078.84;5079308;28;20236;-62
2022/10/12 04:51:36;;;;;;;17.80;11.82;;;;;;;14.29;100.00;95089.38;5073337;28;20212;-62
2022/10/12 04:54:02;;;;;;;18.53;13.00;;;;;;;14.26;100.00;95082.75;5082614;28;20648;-60
2022/10/12 04:56:27;;;;;;;14.93;12.13;;;;;;;14.48;100.00;95066.25;5074710;28;20275;-64
2022/10/12 04:58:53;;;;;;;18.05;13.48;;;;;;;14.55;100.00;95079.25;5092343;28;20212;-60
2022/10/12 05:01:18;;;;;;;16.17;12.35;;;;;;;14.58;100.00;95096.91;5092593;28;20184;-63
2022/10/12 05:03:43;;;;;;;19.83;13.00;;;;;;;14.58;100.00;95100.28;5092499;28;20220;-62
2022/10/12 05:06:09;;;;;;;18.48;13.88;;;;;;;14.53;100.00;95105.00;5092279;28;20236;-60
2022/10/12 05:08:34;;;;;;;21.35;13.57;;;;;;;14.54;100.00;95109.19;5091890;28;20196;-60
2022/10/12 05:11:00;;;;;;;19.35;13.48;;;;;;;14.51;100.00;95101.78;5074147;28;20204;-64
2022/10/12 05:13:27;;;;;;;19.80;12.98;;;;;;;14.53;100.00;95099.06;5076822;22;20217;-60
2022/10/12 05:15:52;;;;;;;17.58;12.77;;;;;;;14.49;100.00;95103.66;5052072;28;20217;-60
2022/10/12 05:18:18;;;;;;;16.67;12.32;;;;;;;14.53;100.00;95110.13;5055317;28;20669;-64
2022/10/12 05:20:43;;;;;;;22.90;13.60;;;;;;;14.42;100.00;95086.47;5053168;28;20299;-62
2022/10/12 05:23:10;;;;;;;17.35;12.60;;;;;;;14.48;100.00;95106.38;5052361;28;20268;-61
2022/10/12 05:25:36;;;;;;;21.15;13.10;;;;;;;14.51;100.00;95100.97;5052947;28;20209;-62
2022/10/12 05:28:02;;;;;;;22.25;12.48;;;;;;;14.60;100.00;95084.78;5065889;28;20262;-63
2022/10/12 05:30:27;;;;;;;22.40;13.23;;;;;;;14.76;100.00;95120.78;5071993;28;20220;-63
2022/10/12 05:32:53;;;;;;;18.90;12.13;;;;;;;14.62;100.00;95121.25;5071735;28;20244;-62
2022/10/12 05:35:19;;;;;;;22.58;13.52;;;;;;;14.69;100.00;95135.88;5070742;28;20216;-62
2022/10/12 05:37:44;;;;;;;20.30;13.77;;;;;;;14.67;100.00;95140.34;5069601;28;20640;-63
2022/10/12 05:40:09;;;;;;;22.63;13.55;;;;;;;14.50;100.00;95115.53;5071771;28;20418;-63
2022/10/12 05:42:35;;;;;;;15.82;13.10;;;;;;;14.58;100.00;95125.88;5071793;28;20205;-60
2022/10/12 05:45:01;;;;;;;20.38;14.40;;;;;;;14.53;100.00;95119.53;5069561;28;20208;-62
2022/10/12 05:47:26;;;;;;;25.27;14.50;;;;;;;14.42;100.00;95118.00;5053397;28;20204;-62
2022/10/12 05:49:52;;;;;;;16.95;12.82;;;;;;;14.42;100.00;95122.28;5053809;28;20213;-63
2022/10/12 05:52:17;;;;;;;19.52;13.02;;;;;;;14.40;100.00;95119.06;5072340;28;20220;-63
2022/10/12 05:54:42;;;;;;;17.85;13.57;;;;;;;14.53;100.00;95134.88;5072518;28;20213;-62
2022/10/12 05:57:08;;;;;;;26.30;15.07;;;;;;;14.63;100.00;95148.44;5072769;28;20826;-60
2022/10/12 05:59:33;;;;;;;18.35;13.15;;;;;;;14.63;100.00;95148.44;5072842;28;20209;-63
2022/10/12 06:01:59;;;;;;;20.38;14.50;;;;;;;14.43;100.00;95124.72;5072675;28;20196;-63
2022/10/12 06:04:24;;;;;;;22.77;13.32;;;;;;;14.56;100.00;95143.09;5072408;28;20286;-62
2022/10/12 06:06:50;;;;;;;19.52;13.35;;;;;;;14.66;100.00;95151.53;5072486;28;20268;-63
2022/10/12 06:09:15;;;;;;;19.85;14.35;;;;;;;14.62;100.00;95142.53;5054396;28;20300;-61
2022/10/12 06:11:41;;;;;;;19.33;13.38;;;;;;;14.71;100.00;95159.59;5072467;28;20219;-63
2022/10/12 06:14:06;;;;;;;22.40;13.90;;;;;;;14.68;100.00;95144.53;5072472;28;20213;-63
2022/10/12 06:16:32;;;;;;;24.55;14.70;;;;;;;14.70;100.00;95147.75;5072475;28;20243;-62
2022/10/12 06:18:57;;;;;;;22.67;13.70;;;;;;;14.69;100.00;95150.44;5072379;28;20588;-60
2022/10/12 06:21:23;;;;;;;20.30;14.67;;;;;;;14.56;100.00;95148.22;5072208;28;20608;-59
2022/10/12 06:23:48;;;;;;;22.13;15.33;;;;;;;14.53;100.00;95145.94;5072376;28;20203;-63
2022/10/12 06:26:15;;;;;;;24.42;15.75;;;;;;;14.56;100.00;95147.41;5072057;28;20208;-63
2022/10/12 06:28:40;;;;;;;28.35;16.08;;;;;;;14.62;100.00;95155.34;5072320;28;20216;-63
2022/10/12 06:31:06;;;;;;;29.95;15.20;;;;;;;14.79;100.00;95166.53;5072212;28;20649;-62
2022/10/12 06:33:31;;;;;;;26.63;16.77;;;;;;;14.72;100.00;95150.16;5072414;28;20193;-62
2022/10/12 06:35:57;;;;;;;30.77;15.98;;;;;;;14.90;100.00;95176.59;5072099;28;20669;-63
2022/10/12 06:38:22;;;;;;;46.63;30.40;;;;;;;14.79;100.00;95162.25;5072414;28;20254;-59
2022/10/12 06:40:48;;;;;;;37.08;24.27;;;;;;;14.70;100.00;95158.00;5072076;28;20683;-62
2022/10/12 06:43:14;;;;;;;48.47;29.92;;;;;;;14.78;100.00;95163.19;5072020;28;20270;-62
2022/10/12 06:45:39;;;;;;;33.03;20.90;;;;;;;14.78;100.00;95159.81;5071952;28;20299;-60
2022/10/12 06:48:06;;;;;;;29.52;20.25;;;;;;;14.88;100.00;95175.94;5072316;28;20280;-60
2022/10/12 06:50:31;;;;;;;32.45;19.13;;;;;;;14.93;100.00;95166.06;5071844;28;20295;-61
2022/10/12 06:52:56;;;;;;;22.10;15.23;;;;;;;15.01;100.00;95182.31;5054120;28;20193;-65
2022/10/12 06:55:22;;;;;;;28.33;15.40;;;;;;;15.03;100.00;95200.91;5036566;28;20243;-60
2022/10/12 06:57:47;;;;;;;21.73;15.52;;;;;;;15.02;100.00;95188.25;5072094;28;20224;-63
2022/10/12 07:00:13;;;;;;;23.30;15.20;;;;;;;15.03;100.00;95182.19;5071874;28;20295;-62
2022/10/12 07:02:39;;;;;;;25.65;15.85;;;;;;;15.19;100.00;95202.84;5071931;28;20270;-63
2022/10/12 07:05:06;;;;;;;25.67;16.13;;;;;;;15.27;100.00;95199.56;5071789;28;20287;-62
2022/10/12 07:07:34;;;;;;;21.00;15.27;;;;;;;15.36;100.00;95217.44;5053611;28;20193;-61
2022/10/12 07:09:59;;;;;;;25.95;16.15;;;;;;;15.19;100.00;95187.47;5071633;28;20237;-63
2022/10/12 07:12:25;;;;;;;24.73;16.35;;;;;;;15.17;100.00;95186.81;5071291;28;20212;-63
2022/10/12 07:14:51;;;;;;;24.80;15.07;;;;;;;15.36;100.00;95206.38;5071457;28;20709;-62
2022/10/12 07:17:16;;;;;;;25.25;15.63;;;;;;;15.31;100.00;95194.00;5071645;28;20654;-61
2022/10/12 07:19:43;;;;;;;25.45;16.65;;;;;;;15.57;100.00;95225.69;5071249;28;20224;-61
2022/10/12 07:22:08;;;;;;;22.75;16.42;;;;;;;15.63;100.00;95235.38;5071484;28;20192;-63
2022/10/12 07:24:36;;;;;;;25.02;16.38;;;;;;;15.46;100.00;95207.97;5071262;28;20201;-62
2022/10/12 07:27:03;;;;;;;26.42;16.80;;;;;;;15.34;100.00;95192.91;5071609;28;20193;-60
2022/10/12 07:29:31;;;;;;;27.73;17.73;;;;;;;15.36;100.00;95206.38;5071271;28;20215;-60
2022/10/12 07:31:57;;;;;;;24.67;17.20;;;;;;;15.51;100.00;95225.47;5071293;28;20221;-61
2022/10/12 07:34:23;;;;;;;27.38;16.65;;;;;;;15.42;100.00;95216.88;5071139;28;20284;-61
2022/10/12 07:36:48;;;;;;;23.35;16.45;;;;;;;15.34;100.00;95218.53;5071269;28;20681;-63
2022/10/12 07:39:14;;;;;;;24.30;15.80;;;;;;;15.21;100.00;95200.94;5071047;28;20711;-64
2022/10/12 07:41:40;;;;;;;25.17;15.82;;;;;;;15.50;100.00;95229.78;5071864;28;20188;-63
2022/10/12 07:44:05;;;;;;;28.65;16.55;;;;;;;15.30;100.00;95202.66;5070988;28;20685;-63
2022/10/12 07:46:30;;;;;;;23.20;15.65;;;;;;;15.38;100.00;95205.28;5071043;28;20196;-62
2022/10/12 07:48:56;;;;;;;21.80;15.07;;;;;;;15.23;100.00;95193.13;5071036;28;20673;-64
2022/10/12 07:51:22;;;;;;;38.63;15.15;;;;;;;15.23;100.00;95191.34;5052777;28;20211;-65
2022/10/12 07:53:47;;;;;;;25.33;15.50;;;;;;;15.35;100.00;95208.13;5071509;28;20693;-63
2022/10/12 07:56:15;;;;;;;22.98;14.70;;;;;;;15.31;100.00;95195.78;5053463;28;20193;-64
2022/10/12 07:58:46;;;;;;;21.00;15.02;;;;;;;15.37;100.00;95197.75;5071804;28;20220;-65
2022/10/12 08:01:12;;;;;;;21.20;15.30;;;;;;;15.46;100.00;95210.53;5071985;28;20192;-63
2022/10/12 08:03:37;;;;;;;19.60;14.82;;;;;;;15.39;100.00;95193.28;5054132;28;20203;-64
2022/10/12 08:06:19;;;;;;;26.30;15.52;;;;;;;15.50;100.00;95208.47;5070918;28;20181;-64
2022/10/12 08:08:44;;;;;;;24.15;15.48;;;;;;;15.47;100.00;95224.16;5074607;28;20208;-62
2022/10/12 08:11:11;;;;;;;20.17;14.10;;;;;;;15.50;100.00;95218.72;5056736;28;20205;-64
2022/10/12 08:13:37;;;;;;;22.02;15.07;;;;;;;15.64;100.00;95220.78;5074073;28;20197;-65
2022/10/12 08:16:04;;;;;;;25.55;14.55;;;;;;;15.59;100.00;95226.34;5074103;28;20200;-63
2022/10/12 08:18:30;;;;;;;21.58;14.88;;;;;;;15.58;100.00;95221.34;5074733;28;20193;-59
2022/10/12 08:20:56;;;;;;;24.60;15.07;;;;;;;15.62;100.00;95228.63;5074102;28;20596;-60
2022/10/12 08:23:22;;;;;;;21.42;14.02;;;;;;;15.53;100.00;95209.00;5074347;28;20232;-60
2022/10/12 08:25:55;;;;;;;25.48;13.93;;;;;;;15.49;100.00;95196.63;5073855;28;20192;-60
2022/10/12 08:28:22;;;;;;;22.33;13.30;;;;;;;15.56;100.00;95206.13;5056093;28;20200;-59
2022/10/12 08:30:47;;;;;;;21.58;13.68;;;;;;;15.56;100.00;95225.81;5073670;28;20308;-60
2022/10/12 08:33:14;;;;;;;18.90;13.00;;;;;;;15.52;100.00;95233.00;5074179;28;20280;-64
2022/10/12 08:35:40;;;;;;;20.55;12.93;;;;;;;15.59;100.00;95228.09;5073822;28;20675;-64
2022/10/12 08:38:08;;;;;;;21.52;12.77;;;;;;;15.65;100.00;95232.66;5073764;28;20192;-64
2022/10/12 08:40:43;;;;;;;17.95;12.52;;;;;;;15.71;100.00;95229.50;5081665;22;20691;-62
2022/10/12 08:43:23;;;;;;;17.73;11.68;;;;;;;15.54;100.00;95225.16;5073630;28;20188;-62
2022/10/12 08:45:53;;;;;;;21.75;13.00;;;;;;;15.58;100.00;95232.41;5053409;28;20185;-63
2022/10/12 08:48:24;;;;;;;27.23;13.75;;;;;;;15.53;100.00;95224.38;5053572;28;20192;-63
2022/10/12 08:50:57;;;;;;;23.02;13.20;;;;;;;15.63;100.00;95226.88;5053290;28;20312;-64
2022/10/12 08:53:27;;;;;;;23.08;12.55;;;;;;;15.64;100.00;95231.03;5053440;28;20181;-62
2022/10/12 08:55:53;;;;;;;16.65;12.50;;;;;;;15.63;100.00;95226.88;5053422;28;20236;-62
2022/10/12 08:58:39;;;;;;;19.67;12.43;;;;;;;15.69;100.00;95218.59;5053260;28;20280;-62
2022/10/12 09:01:26;;;;;;;23.38;12.77;;;;;;;15.62;100.00;95212.41;5053491;28;20280;-62
2022/10/12 09:04:23;;;;;;;17.52;12.27;;;;;;;15.92;100.00;95155.63;5053354;28;20255;-61
2022/10/12 09:06:55;;;;;;;19.15;12.80;;;;;;;15.76;100.00;95202.47;5053358;28;20204;-62
2022/10/12 09:09:36;;;;;;;15.30;11.85;;;;;;;15.84;100.00;95224.78;5053455;28;20216;-62
2022/10/12 09:12:16;;;;;;;20.70;13.35;;;;;;;15.76;100.00;95219.59;5035335;28;20312;-60
2022/10/12 09:14:43;;;;;;;20.40;14.02;;;;;;;15.68;100.00;95220.34;5053761;28;20216;-62
2022/10/12 09:17:29;;;;;;;23.60;13.23;;;;;;;15.69;100.00;95218.59;5035870;28;20631;-60
2022/10/12 09:20:02;;;;;;;19.02;12.45;;;;;;;15.75;100.00;95208.56;5052517;28;20591;-61
2022/10/12 09:22:29;;;;;;;18.52;11.70;;;;;;;15.76;100.00;95204.22;5052981;28;20193;-61
2022/10/12 09:24:57;;;;;;;17.15;12.23;;;;;;;15.74;100.00;95195.88;5053115;28;20220;-61
2022/10/12 09:27:23;;;;;;;21.13;12.75;;;;;;;15.88;100.00;95198.72;5053584;28;20181;-64
2022/10/12 09:29:53;;;;;;;18.73;12.95;;;;;;;15.95;100.00;95193.81;5053063;28;20235;-61
2022/10/12 09:32:51;;;;;;;24.08;12.77;;;;;;;15.93;100.00;95214.47;5052919;28;20258;-62
2022/10/12 09:35:16;;;;;;;23.63;13.07;;;;;;;16.05;100.00;95215.03;5053211;28;20201;-62
2022/10/12 09:37:49;;;;;;;18.02;13.55;;;;;;;16.11;100.00;95237.53;5053345;28;20571;-63
2022/10/12 09:40:34;;;;;;;18.33;13.48;;;;;;;15.88;100.00;95197.91;5052847;28;20236;-62
2022/10/12 09:43:02;;;;;;;17.85;12.48;;;;;;;15.98;100.00;95219.94;5052581;28;20201;-61
2022/10/12 09:45:31;;;;;;;17.80;13.57;;;;;;;16.08;100.00;95249.84;5053144;28;20691;-60
2022/10/12 09:48:09;;;;;;;17.30;11.77;;;;;;;16.36;100.00;95162.31;5052718;28;20193;-64
2022/10/12 09:50:49;;;;;;;20.42;13.43;;;;;;;16.35;100.00;95211.22;5034788;28;20221;-60
2022/10/12 09:53:34;;;;;;;16.25;12.90;;;;;;;16.41;100.00;95234.53;5052685;28;20185;-61
2022/10/12 09:56:07;;;;;;;20.63;13.85;;;;;;;16.45;100.00;95217.88;5053353;28;20193;-62
2022/10/12 09:58:41;;;;;;;23.83;13.43;;;;;;;16.35;100.00;95236.88;5035009;28;20268;-62
2022/10/12 10:01:23;;;;;;;20.25;12.55;;;;;;;16.27;100.00;95231.69;5052602;28;20233;-63
2022/10/12 10:04:05;;;;;;;18.98;12.13;;;;;;;16.19;100.00;95252.16;5052672;28;20212;-62
2022/10/12 10:06:31;;;;;;;15.05;11.30;;;;;;;16.25;100.00;95262.66;5052337;28;20189;-62
2022/10/12 10:08:57;;;;;;;20.08;12.73;;;;;;;16.14;100.00;95232.09;5052878;28;20759;-61
2022/10/12 10:11:26;;;;;;;15.30;10.65;;;;;;;16.20;100.00;95259.72;5052402;28;20220;-63
2022/10/12 10:13:53;;;;;;;16.00;11.23;;;;;;;15.99;100.00;95213.06;5034352;28;20335;-63
2022/10/12 10:16:22;;;;;;;21.45;11.93;;;;;;;16.14;100.00;95236.44;5052329;28;20173;-63
2022/10/12 10:18:57;;;;;;;14.15;11.30;;;;;;;16.34;100.00;95260.94;5052077;28;20270;-64
2022/10/12 10:21:38;;;;;;;18.65;11.95;;;;;;;16.07;100.00;95235.41;5034293;28;20185;-65
2022/10/12 10:24:11;;;;;;;18.38;11.80;;;;;;;16.04;100.00;95217.75;5096028;22;20224;-65
2022/10/12 10:27:05;;;;;;;12.82;10.70;;;;;;;16.04;100.00;95210.84;5092445;28;20192;-64
2022/10/12 10:29:40;;;;;;;16.90;11.75;;;;;;;16.03;100.00;95199.00;5091890;28;20242;-64
2022/10/12 10:32:12;;;;;;;20.00;12.02;;;;;;;16.38;100.00;95221.97;5091708;28;20272;-64
2022/10/12 10:34:40;;;;;;;15.75;10.73;;;;;;;16.44;100.00;95216.25;5092111;28;20212;-64
2022/10/12 10:37:06;;;;;;;12.80;10.02;;;;;;;16.51;100.00;95212.16;5092399;28;20249;-62
2022/10/12 10:39:43;;;;;;;15.30;10.27;;;;;;;16.76;100.00;95243.91;5092198;28;20204;-62
2022/10/12 10:42:19;;;;;;;15.10;11.07;;;;;;;16.92;100.00;95246.56;5092391;28;20270;-62
2022/10/12 10:44:57;;;;;;;17.77;11.57;;;;;;;17.01;100.00;95244.84;5073781;28;20291;-62
2022/10/12 10:47:23;;;;;;;13.43;9.75;;;;;;;16.93;100.00;95234.53;5092316;28;20211;-63
2022/10/12 10:49:56;;;;;;;13.50;10.20;;;;;;;16.85;100.00;95242.19;5091852;28;20686;-63
2022/10/12 10:52:34;;;;;;;14.35;10.50;;;;;;;17.10;100.00;95265.25;5091639;28;20227;-62
2022/10/12 10:55:05;;;;;;;12.93;9.73;;;;;;;17.06;100.00;95252.88;5091818;28;20207;-62
2022/10/12 10:57:33;;;;;;;17.75;10.57;;;;;;;17.16;100.00;95251.78;5074371;28;20285;-62
2022/10/12 11:00:11;;;;;;;14.18;11.35;;;;;;;17.31;100.00;95252.00;5091693;28;20214;-64
2022/10/12 11:02:55;;;;;;;14.63;11.18;;;;;;;17.31;100.00;95277.72;5092056;28;20200;-61
2022/10/12 11:05:43;;;;;;;14.52;10.40;;;;;;;17.57;100.00;95268.19;5074200;28;20211;-60
2022/10/12 11:08:27;;;;;;;13.07;10.20;;;;;;;17.37;100.00;95271.97;5092238;28;20207;-64
2022/10/12 11:11:05;;;;;;;15.18;11.30;;;;;;;17.57;100.00;95239.91;5073267;28;20272;-64
2022/10/12 11:13:59;;;;;;;16.15;11.80;;;;;;;17.82;100.00;95282.69;5073368;28;20666;-64
2022/10/12 11:16:44;;;;;;;17.70;11.05;;;;;;;18.00;100.00;95303.94;5073350;28;20173;-63
2022/10/12 11:19:42;;;;;;;18.10;10.82;;;;;;;18.12;100.00;95310.38;5073611;28;20287;-63
2022/10/12 11:22:16;;;;;;;14.43;11.05;;;;;;;18.08;100.00;95309.09;5086417;28;20233;-59